sensor_id;sensor_type;location;lat;lon;timestamp;P1;durP1;ratioP1;P2;durP2;ratioP2
18576;SDS011;9418;52.694;13.294;2023-11-19T00:00:58;6.50;;;5.90;;
18576;SDS011;9418;52.694;13.294;2023-11-19T00:03:25;10.87;;;6.43;;
18576;SDS011;9418;52.694;13.294;2023-11-19T00:05:51;5.80;;;5.30;;
18576;SDS011;9418;52.694;13.294;2023-11-19T00:08:18;9.00;;;6.33;;
18576;SDS011;9418;52.694;13.294;2023-11-19T00:10:46;8.50;;;5.93;;
18576;SDS011;9418;52.694;13.294;2023-11-19T00:13:12;6.93;;;6.33;;
18576;SDS011;9418;52.694;13.294;2023-11-19T00:15:39;6.43;;;5.80;;
18576;SDS011;9418;52.694;13.294;2023-11-19T00:18:05;6.17;;;5.63;;
18576;SDS011;9418;52.694;13.294;2023-11-19T00:20:32;5.53;;;5.07;;
18576;SDS011;9418;52.694;13.294;2023-11-19T00:22:58;6.77;;;6.17;;
18576;SDS011;9418;52.694;13.294;2023-11-19T00:25:27;7.20;;;6.00;;
18576;SDS011;9418;52.694;13.294;2023-11-19T00:27:55;6.20;;;5.77;;
18576;SDS011;9418;52.694;13.294;2023-11-19T00:30:22;7.83;;;5.80;;
18576;SDS011;9418;52.694;13.294;2023-11-19T00:32:48;7.00;;;6.37;;
18576;SDS011;9418;52.694;13.294;2023-11-19T00:35:15;6.90;;;5.70;;
18576;SDS011;9418;52.694;13.294;2023-11-19T00:37:41;7.37;;;6.23;;
18576;SDS011;9418;52.694;13.294;2023-11-19T00:40:10;6.03;;;5.50;;
18576;SDS011;9418;52.694;13.294;2023-11-19T00:42:37;6.63;;;6.00;;
18576;SDS011;9418;52.694;13.294;2023-11-19T00:45:06;6.23;;;5.73;;
18576;SDS011;9418;52.694;13.294;2023-11-19T00:47:35;6.93;;;6.23;;
18576;SDS011;9418;52.694;13.294;2023-11-19T00:50:02;6.83;;;5.83;;
18576;SDS011;9418;52.694;13.294;2023-11-19T00:52:28;7.27;;;6.07;;
18576;SDS011;9418;52.694;13.294;2023-11-19T00:54:55;6.87;;;5.93;;
18576;SDS011;9418;52.694;13.294;2023-11-19T00:57:22;7.60;;;5.90;;
18576;SDS011;9418;52.694;13.294;2023-11-19T00:59:49;6.53;;;5.93;;
18576;SDS011;9418;52.694;13.294;2023-11-19T01:02:16;8.53;;;5.70;;
18576;SDS011;9418;52.694;13.294;2023-11-19T01:04:43;6.20;;;5.60;;
18576;SDS011;9418;52.694;13.294;2023-11-19T01:07:10;6.87;;;6.17;;
18576;SDS011;9418;52.694;13.294;2023-11-19T01:09:38;6.63;;;6.13;;
18576;SDS011;9418;52.694;13.294;2023-11-19T01:12:05;6.13;;;5.53;;
18576;SDS011;9418;52.694;13.294;2023-11-19T01:14:32;6.53;;;5.70;;
18576;SDS011;9418;52.694;13.294;2023-11-19T01:16:59;6.00;;;5.27;;
18576;SDS011;9418;52.694;13.294;2023-11-19T01:19:28;6.43;;;5.83;;
18576;SDS011;9418;52.694;13.294;2023-11-19T01:21:55;7.83;;;5.53;;
18576;SDS011;9418;52.694;13.294;2023-11-19T01:24:21;8.07;;;5.33;;
18576;SDS011;9418;52.694;13.294;2023-11-19T01:26:48;7.10;;;5.70;;
18576;SDS011;9418;52.694;13.294;2023-11-19T01:29:14;5.43;;;5.03;;
18576;SDS011;9418;52.694;13.294;2023-11-19T01:31:42;7.00;;;5.50;;
18576;SDS011;9418;52.694;13.294;2023-11-19T01:34:09;5.47;;;5.03;;
18576;SDS011;9418;52.694;13.294;2023-11-19T01:36:38;7.30;;;5.57;;
18576;SDS011;9418;52.694;13.294;2023-11-19T01:39:05;6.17;;;4.87;;
18576;SDS011;9418;52.694;13.294;2023-11-19T01:41:33;7.77;;;5.90;;
18576;SDS011;9418;52.694;13.294;2023-11-19T01:44:01;7.17;;;5.00;;
18576;SDS011;9418;52.694;13.294;2023-11-19T01:46:28;5.37;;;4.83;;
18576;SDS011;9418;52.694;13.294;2023-11-19T01:48:55;8.10;;;5.33;;
18576;SDS011;9418;52.694;13.294;2023-11-19T01:51:22;6.00;;;5.40;;
18576;SDS011;9418;52.694;13.294;2023-11-19T01:53:51;6.33;;;5.33;;
18576;SDS011;9418;52.694;13.294;2023-11-19T01:56:18;5.17;;;4.77;;
18576;SDS011;9418;52.694;13.294;2023-11-19T01:58:47;5.47;;;5.07;;
18576;SDS011;9418;52.694;13.294;2023-11-19T02:01:15;6.20;;;5.60;;
18576;SDS011;9418;52.694;13.294;2023-11-19T02:03:42;6.40;;;5.67;;
18576;SDS011;9418;52.694;13.294;2023-11-19T02:06:09;6.63;;;5.43;;
18576;SDS011;9418;52.694;13.294;2023-11-19T02:08:36;5.43;;;4.93;;
18576;SDS011;9418;52.694;13.294;2023-11-19T02:11:05;6.13;;;5.53;;
18576;SDS011;9418;52.694;13.294;2023-11-19T02:13:32;5.63;;;4.63;;
18576;SDS011;9418;52.694;13.294;2023-11-19T02:16:00;6.93;;;5.33;;
18576;SDS011;9418;52.694;13.294;2023-11-19T02:18:28;9.53;;;5.63;;
18576;SDS011;9418;52.694;13.294;2023-11-19T02:20:55;7.17;;;4.53;;
18576;SDS011;9418;52.694;13.294;2023-11-19T02:23:22;6.93;;;5.60;;
18576;SDS011;9418;52.694;13.294;2023-11-19T02:25:54;4.97;;;4.57;;
18576;SDS011;9418;52.694;13.294;2023-11-19T02:28:31;5.23;;;4.70;;
18576;SDS011;9418;52.694;13.294;2023-11-19T02:30:59;5.30;;;4.80;;
18576;SDS011;9418;52.694;13.294;2023-11-19T02:33:25;6.13;;;5.57;;
18576;SDS011;9418;52.694;13.294;2023-11-19T02:35:52;5.33;;;4.90;;
18576;SDS011;9418;52.694;13.294;2023-11-19T02:38:18;6.80;;;4.80;;
18576;SDS011;9418;52.694;13.294;2023-11-19T02:40:46;9.77;;;4.93;;
18576;SDS011;9418;52.694;13.294;2023-11-19T02:43:14;5.30;;;4.90;;
18576;SDS011;9418;52.694;13.294;2023-11-19T02:45:42;5.40;;;4.90;;
18576;SDS011;9418;52.694;13.294;2023-11-19T02:48:10;5.13;;;4.70;;
18576;SDS011;9418;52.694;13.294;2023-11-19T02:50:39;5.47;;;4.70;;
18576;SDS011;9418;52.694;13.294;2023-11-19T02:53:06;5.67;;;4.87;;
18576;SDS011;9418;52.694;13.294;2023-11-19T02:55:32;6.17;;;4.83;;
18576;SDS011;9418;52.694;13.294;2023-11-19T02:58:02;4.93;;;4.37;;
18576;SDS011;9418;52.694;13.294;2023-11-19T03:00:34;9.33;;;4.47;;
18576;SDS011;9418;52.694;13.294;2023-11-19T03:03:06;5.03;;;4.20;;
18576;SDS011;9418;52.694;13.294;2023-11-19T03:05:45;4.70;;;4.20;;
18576;SDS011;9418;52.694;13.294;2023-11-19T03:08:11;5.33;;;4.73;;
18576;SDS011;9418;52.694;13.294;2023-11-19T03:10:38;7.40;;;4.53;;
18576;SDS011;9418;52.694;13.294;2023-11-19T03:13:05;5.27;;;4.37;;
18576;SDS011;9418;52.694;13.294;2023-11-19T03:15:32;5.70;;;4.77;;
18576;SDS011;9418;52.694;13.294;2023-11-19T03:17:59;4.53;;;4.17;;
18576;SDS011;9418;52.694;13.294;2023-11-19T03:20:27;3.83;;;3.63;;
18576;SDS011;9418;52.694;13.294;2023-11-19T03:22:55;7.20;;;4.67;;
18576;SDS011;9418;52.694;13.294;2023-11-19T03:25:22;4.93;;;4.50;;
18576;SDS011;9418;52.694;13.294;2023-11-19T03:27:51;6.63;;;4.13;;
18576;SDS011;9418;52.694;13.294;2023-11-19T03:30:19;5.03;;;4.53;;
18576;SDS011;9418;52.694;13.294;2023-11-19T03:32:45;4.30;;;3.90;;
18576;SDS011;9418;52.694;13.294;2023-11-19T03:35:12;4.63;;;4.07;;
18576;SDS011;9418;52.694;13.294;2023-11-19T03:37:40;4.13;;;3.80;;
18576;SDS011;9418;52.694;13.294;2023-11-19T03:40:08;4.80;;;4.40;;
18576;SDS011;9418;52.694;13.294;2023-11-19T03:42:36;9.50;;;3.80;;
18576;SDS011;9418;52.694;13.294;2023-11-19T03:45:02;4.17;;;3.77;;
18576;SDS011;9418;52.694;13.294;2023-11-19T03:47:29;4.90;;;4.37;;
18576;SDS011;9418;52.694;13.294;2023-11-19T03:49:56;3.90;;;3.60;;
18576;SDS011;9418;52.694;13.294;2023-11-19T03:52:22;4.40;;;4.00;;
18576;SDS011;9418;52.694;13.294;2023-11-19T03:54:50;4.10;;;3.80;;
18576;SDS011;9418;52.694;13.294;2023-11-19T03:57:17;4.33;;;3.80;;
18576;SDS011;9418;52.694;13.294;2023-11-19T03:59:43;3.73;;;3.43;;
18576;SDS011;9418;52.694;13.294;2023-11-19T04:02:10;3.47;;;3.27;;
18576;SDS011;9418;52.694;13.294;2023-11-19T04:04:37;4.50;;;4.17;;
18576;SDS011;9418;52.694;13.294;2023-11-19T04:07:04;4.00;;;3.70;;
18576;SDS011;9418;52.694;13.294;2023-11-19T04:09:31;5.83;;;4.10;;
18576;SDS011;9418;52.694;13.294;2023-11-19T04:12:00;4.17;;;3.87;;
18576;SDS011;9418;52.694;13.294;2023-11-19T04:14:27;5.40;;;4.60;;
18576;SDS011;9418;52.694;13.294;2023-11-19T04:16:53;4.13;;;3.83;;
18576;SDS011;9418;52.694;13.294;2023-11-19T04:19:20;4.80;;;4.40;;
18576;SDS011;9418;52.694;13.294;2023-11-19T04:21:47;7.67;;;4.60;;
18576;SDS011;9418;52.694;13.294;2023-11-19T04:24:13;4.67;;;4.27;;
18576;SDS011;9418;52.694;13.294;2023-11-19T04:26:40;8.23;;;4.47;;
18576;SDS011;9418;52.694;13.294;2023-11-19T04:29:09;4.50;;;4.10;;
18576;SDS011;9418;52.694;13.294;2023-11-19T04:31:37;5.50;;;4.50;;
18576;SDS011;9418;52.694;13.294;2023-11-19T04:34:04;9.10;;;4.87;;
18576;SDS011;9418;52.694;13.294;2023-11-19T04:36:31;5.10;;;4.70;;
18576;SDS011;9418;52.694;13.294;2023-11-19T04:38:58;5.87;;;5.27;;
18576;SDS011;9418;52.694;13.294;2023-11-19T04:41:25;4.40;;;4.00;;
18576;SDS011;9418;52.694;13.294;2023-11-19T04:43:52;5.20;;;4.70;;
18576;SDS011;9418;52.694;13.294;2023-11-19T04:46:20;4.73;;;4.33;;
18576;SDS011;9418;52.694;13.294;2023-11-19T04:48:48;4.90;;;4.50;;
18576;SDS011;9418;52.694;13.294;2023-11-19T04:51:15;5.03;;;4.23;;
18576;SDS011;9418;52.694;13.294;2023-11-19T04:53:42;8.13;;;5.20;;
18576;SDS011;9418;52.694;13.294;2023-11-19T04:56:08;7.83;;;5.50;;
18576;SDS011;9418;52.694;13.294;2023-11-19T04:58:36;4.90;;;4.50;;
18576;SDS011;9418;52.694;13.294;2023-11-19T05:01:02;7.30;;;5.23;;
18576;SDS011;9418;52.694;13.294;2023-11-19T05:03:31;4.77;;;4.47;;
18576;SDS011;9418;52.694;13.294;2023-11-19T05:05:58;6.10;;;5.50;;
18576;SDS011;9418;52.694;13.294;2023-11-19T05:08:24;5.40;;;5.00;;
18576;SDS011;9418;52.694;13.294;2023-11-19T05:10:51;5.77;;;5.27;;
18576;SDS011;9418;52.694;13.294;2023-11-19T05:13:17;6.90;;;5.13;;
18576;SDS011;9418;52.694;13.294;2023-11-19T05:15:44;4.23;;;3.80;;
18576;SDS011;9418;52.694;13.294;2023-11-19T05:18:10;5.17;;;4.67;;
18576;SDS011;9418;52.694;13.294;2023-11-19T05:20:38;5.03;;;4.60;;
18576;SDS011;9418;52.694;13.294;2023-11-19T05:23:05;4.83;;;4.43;;
18576;SDS011;9418;52.694;13.294;2023-11-19T05:25:31;5.17;;;4.70;;
18576;SDS011;9418;52.694;13.294;2023-11-19T05:27:58;5.30;;;4.50;;
18576;SDS011;9418;52.694;13.294;2023-11-19T05:30:25;5.70;;;4.93;;
18576;SDS011;9418;52.694;13.294;2023-11-19T05:32:51;4.90;;;4.53;;
18576;SDS011;9418;52.694;13.294;2023-11-19T05:35:18;5.60;;;4.37;;
18576;SDS011;9418;52.694;13.294;2023-11-19T05:37:46;4.93;;;4.53;;
18576;SDS011;9418;52.694;13.294;2023-11-19T05:40:12;4.40;;;4.10;;
18576;SDS011;9418;52.694;13.294;2023-11-19T05:42:40;3.90;;;3.70;;
18576;SDS011;9418;52.694;13.294;2023-11-19T05:45:07;5.80;;;4.93;;
18576;SDS011;9418;52.694;13.294;2023-11-19T05:47:34;3.93;;;3.63;;
18576;SDS011;9418;52.694;13.294;2023-11-19T05:50:01;5.90;;;3.63;;
18576;SDS011;9418;52.694;13.294;2023-11-19T05:52:28;4.73;;;3.83;;
18576;SDS011;9418;52.694;13.294;2023-11-19T05:54:59;4.23;;;3.73;;
18576;SDS011;9418;52.694;13.294;2023-11-19T05:57:28;3.50;;;3.20;;
18576;SDS011;9418;52.694;13.294;2023-11-19T05:59:55;4.37;;;3.30;;
18576;SDS011;9418;52.694;13.294;2023-11-19T06:02:23;3.80;;;3.50;;
18576;SDS011;9418;52.694;13.294;2023-11-19T06:04:50;3.73;;;3.53;;
18576;SDS011;9418;52.694;13.294;2023-11-19T06:07:16;3.60;;;3.40;;
18576;SDS011;9418;52.694;13.294;2023-11-19T06:09:43;4.00;;;3.70;;
18576;SDS011;9418;52.694;13.294;2023-11-19T06:12:11;2.90;;;2.70;;
18576;SDS011;9418;52.694;13.294;2023-11-19T06:14:39;3.10;;;2.90;;
18576;SDS011;9418;52.694;13.294;2023-11-19T06:17:06;3.50;;;3.20;;
18576;SDS011;9418;52.694;13.294;2023-11-19T06:19:33;3.93;;;3.63;;
18576;SDS011;9418;52.694;13.294;2023-11-19T06:22:00;3.40;;;3.20;;
18576;SDS011;9418;52.694;13.294;2023-11-19T06:24:26;3.30;;;3.10;;
18576;SDS011;9418;52.694;13.294;2023-11-19T06:26:53;3.33;;;3.13;;
18576;SDS011;9418;52.694;13.294;2023-11-19T06:29:21;4.07;;;3.33;;
18576;SDS011;9418;52.694;13.294;2023-11-19T06:31:47;3.60;;;3.30;;
18576;SDS011;9418;52.694;13.294;2023-11-19T06:34:14;4.17;;;3.53;;
18576;SDS011;9418;52.694;13.294;2023-11-19T06:36:41;3.40;;;3.20;;
18576;SDS011;9418;52.694;13.294;2023-11-19T06:39:08;2.47;;;2.30;;
18576;SDS011;9418;52.694;13.294;2023-11-19T06:41:35;3.80;;;3.50;;
18576;SDS011;9418;52.694;13.294;2023-11-19T06:44:02;3.33;;;3.00;;
18576;SDS011;9418;52.694;13.294;2023-11-19T06:46:30;4.53;;;2.63;;
18576;SDS011;9418;52.694;13.294;2023-11-19T06:48:57;3.47;;;3.07;;
18576;SDS011;9418;52.694;13.294;2023-11-19T06:51:24;3.00;;;2.80;;
18576;SDS011;9418;52.694;13.294;2023-11-19T06:53:51;3.23;;;3.03;;
18576;SDS011;9418;52.694;13.294;2023-11-19T06:56:19;4.10;;;2.97;;
18576;SDS011;9418;52.694;13.294;2023-11-19T06:58:47;3.73;;;2.80;;
18576;SDS011;9418;52.694;13.294;2023-11-19T07:01:13;2.53;;;2.43;;
18576;SDS011;9418;52.694;13.294;2023-11-19T07:03:41;3.80;;;3.00;;
18576;SDS011;9418;52.694;13.294;2023-11-19T07:06:09;4.07;;;2.93;;
18576;SDS011;9418;52.694;13.294;2023-11-19T07:08:37;2.50;;;2.40;;
18576;SDS011;9418;52.694;13.294;2023-11-19T07:11:04;2.50;;;2.40;;
18576;SDS011;9418;52.694;13.294;2023-11-19T07:13:31;2.40;;;2.30;;
18576;SDS011;9418;52.694;13.294;2023-11-19T07:15:58;2.57;;;2.47;;
18576;SDS011;9418;52.694;13.294;2023-11-19T07:18:24;2.87;;;2.67;;
18576;SDS011;9418;52.694;13.294;2023-11-19T07:20:52;3.20;;;2.90;;
18576;SDS011;9418;52.694;13.294;2023-11-19T07:23:19;2.63;;;2.53;;
18576;SDS011;9418;52.694;13.294;2023-11-19T07:25:46;4.60;;;4.20;;
18576;SDS011;9418;52.694;13.294;2023-11-19T07:28:15;14.37;;;12.90;;
18576;SDS011;9418;52.694;13.294;2023-11-19T07:30:42;3.80;;;3.50;;
18576;SDS011;9418;52.694;13.294;2023-11-19T07:33:09;3.47;;;3.27;;
18576;SDS011;9418;52.694;13.294;2023-11-19T07:35:36;3.37;;;3.10;;
18576;SDS011;9418;52.694;13.294;2023-11-19T07:38:04;12.93;;;11.90;;
18576;SDS011;9418;52.694;13.294;2023-11-19T07:40:30;7.03;;;6.50;;
18576;SDS011;9418;52.694;13.294;2023-11-19T07:42:57;6.30;;;5.90;;
18576;SDS011;9418;52.694;13.294;2023-11-19T07:45:24;2.43;;;2.33;;
18576;SDS011;9418;52.694;13.294;2023-11-19T07:47:52;2.60;;;2.40;;
18576;SDS011;9418;52.694;13.294;2023-11-19T07:50:19;3.13;;;2.97;;
18576;SDS011;9418;52.694;13.294;2023-11-19T07:52:46;3.13;;;2.93;;
18576;SDS011;9418;52.694;13.294;2023-11-19T07:55:14;2.70;;;2.60;;
18576;SDS011;9418;52.694;13.294;2023-11-19T07:57:40;4.20;;;3.90;;
18576;SDS011;9418;52.694;13.294;2023-11-19T08:00:07;3.50;;;3.30;;
18576;SDS011;9418;52.694;13.294;2023-11-19T08:02:37;3.75;;;2.72;;
18576;SDS011;9418;52.694;13.294;2023-11-19T08:05:04;4.70;;;3.17;;
18576;SDS011;9418;52.694;13.294;2023-11-19T08:07:31;3.60;;;3.30;;
18576;SDS011;9418;52.694;13.294;2023-11-19T08:09:57;2.80;;;2.70;;
18576;SDS011;9418;52.694;13.294;2023-11-19T08:12:26;2.70;;;2.53;;
18576;SDS011;9418;52.694;13.294;2023-11-19T08:14:52;2.57;;;2.47;;
18576;SDS011;9418;52.694;13.294;2023-11-19T08:17:19;3.87;;;3.57;;
18576;SDS011;9418;52.694;13.294;2023-11-19T08:19:48;3.43;;;3.13;;
18576;SDS011;9418;52.694;13.294;2023-11-19T08:22:14;3.13;;;2.93;;
18576;SDS011;9418;52.694;13.294;2023-11-19T08:24:41;4.33;;;3.60;;
18576;SDS011;9418;52.694;13.294;2023-11-19T08:27:08;3.10;;;2.90;;
18576;SDS011;9418;52.694;13.294;2023-11-19T08:29:36;3.37;;;3.17;;
18576;SDS011;9418;52.694;13.294;2023-11-19T08:32:03;3.20;;;3.00;;
18576;SDS011;9418;52.694;13.294;2023-11-19T08:34:31;4.97;;;3.30;;
18576;SDS011;9418;52.694;13.294;2023-11-19T08:36:59;3.87;;;3.63;;
18576;SDS011;9418;52.694;13.294;2023-11-19T08:39:25;4.10;;;3.80;;
18576;SDS011;9418;52.694;13.294;2023-11-19T08:41:52;3.70;;;3.43;;
18576;SDS011;9418;52.694;13.294;2023-11-19T08:44:20;8.07;;;3.20;;
18576;SDS011;9418;52.694;13.294;2023-11-19T08:46:48;3.80;;;3.50;;
18576;SDS011;9418;52.694;13.294;2023-11-19T08:49:15;3.70;;;3.40;;
18576;SDS011;9418;52.694;13.294;2023-11-19T08:51:42;4.27;;;3.97;;
18576;SDS011;9418;52.694;13.294;2023-11-19T08:54:09;3.80;;;3.50;;
18576;SDS011;9418;52.694;13.294;2023-11-19T08:56:36;4.23;;;3.83;;
18576;SDS011;9418;52.694;13.294;2023-11-19T08:59:04;3.80;;;3.50;;
18576;SDS011;9418;52.694;13.294;2023-11-19T09:01:31;5.17;;;4.40;;
18576;SDS011;9418;52.694;13.294;2023-11-19T09:03:59;3.90;;;3.60;;
18576;SDS011;9418;52.694;13.294;2023-11-19T09:06:25;4.97;;;4.20;;
18576;SDS011;9418;52.694;13.294;2023-11-19T09:08:52;4.03;;;3.60;;
18576;SDS011;9418;52.694;13.294;2023-11-19T09:11:23;10.63;;;3.73;;
18576;SDS011;9418;52.694;13.294;2023-11-19T09:13:49;3.93;;;3.63;;
18576;SDS011;9418;52.694;13.294;2023-11-19T09:16:16;6.17;;;4.17;;
18576;SDS011;9418;52.694;13.294;2023-11-19T09:18:43;5.87;;;5.27;;
18576;SDS011;9418;52.694;13.294;2023-11-19T09:21:11;3.90;;;3.50;;
18576;SDS011;9418;52.694;13.294;2023-11-19T09:23:38;3.27;;;2.97;;
18576;SDS011;9418;52.694;13.294;2023-11-19T09:26:08;3.77;;;3.57;;
18576;SDS011;9418;52.694;13.294;2023-11-19T09:28:35;3.50;;;3.30;;
18576;SDS011;9418;52.694;13.294;2023-11-19T09:31:01;3.97;;;3.20;;
18576;SDS011;9418;52.694;13.294;2023-11-19T09:33:29;4.00;;;3.60;;
18576;SDS011;9418;52.694;13.294;2023-11-19T09:35:56;4.77;;;3.87;;
18576;SDS011;9418;52.694;13.294;2023-11-19T09:38:24;4.40;;;3.50;;
18576;SDS011;9418;52.694;13.294;2023-11-19T09:40:51;6.67;;;5.13;;
18576;SDS011;9418;52.694;13.294;2023-11-19T09:43:17;3.30;;;3.00;;
18576;SDS011;9418;52.694;13.294;2023-11-19T09:45:45;4.17;;;3.70;;
18576;SDS011;9418;52.694;13.294;2023-11-19T09:48:14;4.00;;;3.60;;
18576;SDS011;9418;52.694;13.294;2023-11-19T09:50:43;4.03;;;3.63;;
18576;SDS011;9418;52.694;13.294;2023-11-19T09:53:11;4.70;;;4.30;;
18576;SDS011;9418;52.694;13.294;2023-11-19T09:55:39;4.30;;;3.67;;
18576;SDS011;9418;52.694;13.294;2023-11-19T09:58:06;5.17;;;3.60;;
18576;SDS011;9418;52.694;13.294;2023-11-19T10:00:33;3.70;;;3.40;;
18576;SDS011;9418;52.694;13.294;2023-11-19T10:03:00;3.83;;;3.20;;
18576;SDS011;9418;52.694;13.294;2023-11-19T10:05:30;4.63;;;3.67;;
18576;SDS011;9418;52.694;13.294;2023-11-19T10:07:57;6.63;;;3.43;;
18576;SDS011;9418;52.694;13.294;2023-11-19T10:10:24;8.40;;;3.10;;
18576;SDS011;9418;52.694;13.294;2023-11-19T10:12:52;8.37;;;3.70;;
18576;SDS011;9418;52.694;13.294;2023-11-19T10:15:20;7.07;;;4.20;;
18576;SDS011;9418;52.694;13.294;2023-11-19T10:17:49;13.87;;;6.67;;
18576;SDS011;9418;52.694;13.294;2023-11-19T10:20:15;10.50;;;5.80;;
18576;SDS011;9418;52.694;13.294;2023-11-19T10:22:42;7.90;;;6.10;;
18576;SDS011;9418;52.694;13.294;2023-11-19T10:25:21;7.27;;;5.00;;
18576;SDS011;9418;52.694;13.294;2023-11-19T10:27:48;6.07;;;4.90;;
18576;SDS011;9418;52.694;13.294;2023-11-19T10:30:18;9.33;;;4.33;;
18576;SDS011;9418;52.694;13.294;2023-11-19T10:32:54;9.63;;;3.83;;
18576;SDS011;9418;52.694;13.294;2023-11-19T10:35:29;5.23;;;3.27;;
18576;SDS011;9418;52.694;13.294;2023-11-19T10:37:58;6.20;;;3.50;;
18576;SDS011;9418;52.694;13.294;2023-11-19T10:40:36;4.90;;;3.83;;
18576;SDS011;9418;52.694;13.294;2023-11-19T10:43:04;4.30;;;3.03;;
18576;SDS011;9418;52.694;13.294;2023-11-19T10:45:34;5.97;;;2.77;;
18576;SDS011;9418;52.694;13.294;2023-11-19T10:48:00;4.30;;;2.83;;
18576;SDS011;9418;52.694;13.294;2023-11-19T10:50:29;9.40;;;3.03;;
18576;SDS011;9418;52.694;13.294;2023-11-19T10:52:56;5.33;;;3.07;;
18576;SDS011;9418;52.694;13.294;2023-11-19T10:55:26;8.83;;;3.23;;
18576;SDS011;9418;52.694;13.294;2023-11-19T10:57:54;3.27;;;2.40;;
18576;SDS011;9418;52.694;13.294;2023-11-19T11:00:26;10.83;;;3.47;;
18576;SDS011;9418;52.694;13.294;2023-11-19T11:03:00;10.63;;;3.20;;
18576;SDS011;9418;52.694;13.294;2023-11-19T11:05:28;6.37;;;2.70;;
18576;SDS011;9418;52.694;13.294;2023-11-19T11:07:57;4.87;;;2.20;;
18576;SDS011;9418;52.694;13.294;2023-11-19T11:10:26;13.00;;;2.90;;
18576;SDS011;9418;52.694;13.294;2023-11-19T11:12:53;7.13;;;3.40;;
18576;SDS011;9418;52.694;13.294;2023-11-19T11:15:24;9.40;;;2.80;;
18576;SDS011;9418;52.694;13.294;2023-11-19T11:17:54;10.77;;;3.00;;
18576;SDS011;9418;52.694;13.294;2023-11-19T11:20:27;20.23;;;3.27;;
18576;SDS011;9418;52.694;13.294;2023-11-19T11:22:58;6.10;;;2.73;;
18576;SDS011;9418;52.694;13.294;2023-11-19T11:25:37;7.53;;;3.07;;
18576;SDS011;9418;52.694;13.294;2023-11-19T11:28:16;13.70;;;2.83;;
18576;SDS011;9418;52.694;13.294;2023-11-19T11:30:55;18.33;;;3.70;;
18576;SDS011;9418;52.694;13.294;2023-11-19T11:33:39;18.97;;;3.67;;
18576;SDS011;9418;52.694;13.294;2023-11-19T11:36:22;15.17;;;3.40;;
18576;SDS011;9418;52.694;13.294;2023-11-19T11:38:49;13.60;;;4.10;;
18576;SDS011;9418;52.694;13.294;2023-11-19T11:41:17;17.20;;;4.47;;
18576;SDS011;9418;52.694;13.294;2023-11-19T11:43:45;15.27;;;3.60;;
18576;SDS011;9418;52.694;13.294;2023-11-19T11:49:18;18.63;;;5.53;;
18576;SDS011;9418;52.694;13.294;2023-11-19T11:51:59;22.40;;;4.37;;
18576;SDS011;9418;52.694;13.294;2023-11-19T11:54:28;27.10;;;4.93;;
18576;SDS011;9418;52.694;13.294;2023-11-19T11:57:08;21.33;;;4.87;;
18576;SDS011;9418;52.694;13.294;2023-11-19T11:59:37;22.77;;;4.57;;
18576;SDS011;9418;52.694;13.294;2023-11-19T12:02:09;25.43;;;4.60;;
18576;SDS011;9418;52.694;13.294;2023-11-19T12:04:38;17.90;;;4.70;;
18576;SDS011;9418;52.694;13.294;2023-11-19T12:07:06;18.07;;;4.33;;
18576;SDS011;9418;52.694;13.294;2023-11-19T12:09:36;22.83;;;5.03;;
18576;SDS011;9418;52.694;13.294;2023-11-19T12:12:12;28.30;;;4.93;;
18576;SDS011;9418;52.694;13.294;2023-11-19T12:17:37;24.13;;;5.03;;
18576;SDS011;9418;52.694;13.294;2023-11-19T12:20:11;27.97;;;5.70;;
18576;SDS011;9418;52.694;13.294;2023-11-19T12:22:38;19.43;;;4.50;;
18576;SDS011;9418;52.694;13.294;2023-11-19T12:25:05;20.77;;;4.50;;
18576;SDS011;9418;52.694;13.294;2023-11-19T12:27:33;23.00;;;5.03;;
18576;SDS011;9418;52.694;13.294;2023-11-19T12:30:00;27.63;;;5.43;;
18576;SDS011;9418;52.694;13.294;2023-11-19T12:32:36;21.53;;;4.40;;
18576;SDS011;9418;52.694;13.294;2023-11-19T12:35:03;20.03;;;4.57;;
18576;SDS011;9418;52.694;13.294;2023-11-19T12:37:32;24.50;;;5.00;;
18576;SDS011;9418;52.694;13.294;2023-11-19T12:40:00;22.83;;;4.03;;
18576;SDS011;9418;52.694;13.294;2023-11-19T12:42:36;29.17;;;5.67;;
18576;SDS011;9418;52.694;13.294;2023-11-19T12:45:04;22.23;;;5.10;;
18576;SDS011;9418;52.694;13.294;2023-11-19T12:47:31;31.43;;;5.50;;
18576;SDS011;9418;52.694;13.294;2023-11-19T12:49:57;21.60;;;5.40;;
18576;SDS011;9418;52.694;13.294;2023-11-19T12:52:24;26.73;;;5.40;;
18576;SDS011;9418;52.694;13.294;2023-11-19T12:54:52;21.23;;;4.53;;
18576;SDS011;9418;52.694;13.294;2023-11-19T12:57:20;23.40;;;6.53;;
18576;SDS011;9418;52.694;13.294;2023-11-19T12:59:56;24.43;;;4.90;;
18576;SDS011;9418;52.694;13.294;2023-11-19T13:02:22;21.53;;;4.70;;
18576;SDS011;9418;52.694;13.294;2023-11-19T13:04:49;20.03;;;5.17;;
18576;SDS011;9418;52.694;13.294;2023-11-19T13:07:20;25.23;;;5.10;;
18576;SDS011;9418;52.694;13.294;2023-11-19T13:09:47;16.03;;;4.07;;
18576;SDS011;9418;52.694;13.294;2023-11-19T13:12:15;22.70;;;4.90;;
18576;SDS011;9418;52.694;13.294;2023-11-19T13:14:42;17.80;;;5.00;;
18576;SDS011;9418;52.694;13.294;2023-11-19T13:17:12;16.43;;;4.33;;
18576;SDS011;9418;52.694;13.294;2023-11-19T13:19:39;22.33;;;5.80;;
18576;SDS011;9418;52.694;13.294;2023-11-19T13:22:06;26.30;;;4.80;;
18576;SDS011;9418;52.694;13.294;2023-11-19T13:24:33;14.90;;;4.57;;
18576;SDS011;9418;52.694;13.294;2023-11-19T13:27:00;13.30;;;4.23;;
18576;SDS011;9418;52.694;13.294;2023-11-19T13:29:28;16.33;;;5.97;;
18576;SDS011;9418;52.694;13.294;2023-11-19T13:31:54;32.20;;;5.73;;
18576;SDS011;9418;52.694;13.294;2023-11-19T13:34:21;22.40;;;4.50;;
18576;SDS011;9418;52.694;13.294;2023-11-19T13:36:47;21.73;;;4.30;;
18576;SDS011;9418;52.694;13.294;2023-11-19T13:39:14;18.73;;;4.70;;
18576;SDS011;9418;52.694;13.294;2023-11-19T13:41:47;16.03;;;4.40;;
18576;SDS011;9418;52.694;13.294;2023-11-19T13:44:15;14.80;;;4.70;;
18576;SDS011;9418;52.694;13.294;2023-11-19T13:46:45;21.27;;;5.03;;
18576;SDS011;9418;52.694;13.294;2023-11-19T13:49:12;31.20;;;5.20;;
18576;SDS011;9418;52.694;13.294;2023-11-19T13:51:38;24.37;;;5.80;;
18576;SDS011;9418;52.694;13.294;2023-11-19T13:54:05;19.33;;;4.70;;
18576;SDS011;9418;52.694;13.294;2023-11-19T13:56:32;25.83;;;5.90;;
18576;SDS011;9418;52.694;13.294;2023-11-19T13:58:58;25.70;;;5.07;;
18576;SDS011;9418;52.694;13.294;2023-11-19T14:01:25;26.77;;;4.97;;
18576;SDS011;9418;52.694;13.294;2023-11-19T14:03:54;19.30;;;5.67;;
18576;SDS011;9418;52.694;13.294;2023-11-19T14:06:20;26.40;;;5.77;;
18576;SDS011;9418;52.694;13.294;2023-11-19T14:08:47;30.27;;;6.33;;
18576;SDS011;9418;52.694;13.294;2023-11-19T14:11:13;22.13;;;5.33;;
18576;SDS011;9418;52.694;13.294;2023-11-19T14:13:40;23.40;;;4.57;;
18576;SDS011;9418;52.694;13.294;2023-11-19T14:16:07;24.53;;;4.60;;
18576;SDS011;9418;52.694;13.294;2023-11-19T14:18:35;23.43;;;5.57;;
18576;SDS011;9418;52.694;13.294;2023-11-19T14:21:03;27.30;;;6.40;;
18576;SDS011;9418;52.694;13.294;2023-11-19T14:23:30;17.60;;;4.70;;
18576;SDS011;9418;52.694;13.294;2023-11-19T14:25:57;29.73;;;7.63;;
18576;SDS011;9418;52.694;13.294;2023-11-19T14:28:23;32.33;;;5.90;;
18576;SDS011;9418;52.694;13.294;2023-11-19T14:30:51;23.87;;;5.63;;
18576;SDS011;9418;52.694;13.294;2023-11-19T14:33:21;21.60;;;5.10;;
18576;SDS011;9418;52.694;13.294;2023-11-19T14:35:48;23.00;;;4.77;;
18576;SDS011;9418;52.694;13.294;2023-11-19T14:38:16;21.70;;;6.10;;
18576;SDS011;9418;52.694;13.294;2023-11-19T14:40:43;30.50;;;5.83;;
18576;SDS011;9418;52.694;13.294;2023-11-19T14:43:09;25.73;;;6.07;;
18576;SDS011;9418;52.694;13.294;2023-11-19T14:45:36;23.77;;;6.03;;
18576;SDS011;9418;52.694;13.294;2023-11-19T14:48:03;23.87;;;5.63;;
18576;SDS011;9418;52.694;13.294;2023-11-19T14:50:29;20.77;;;5.13;;
18576;SDS011;9418;52.694;13.294;2023-11-19T14:52:56;23.47;;;5.67;;